createdAt,value
2018-05-11T00:01:20.406Z,99191.44
2018-05-11T00:03:46.912Z,99194.98
2018-05-11T00:06:13.391Z,99196.88
2018-05-11T00:08:39.871Z,99200.65
2018-05-11T00:11:06.313Z,99200.32
2018-05-11T00:13:32.805Z,99202.92
2018-05-11T00:15:59.301Z,99209.13
2018-05-11T00:18:25.726Z,99209.60
2018-05-11T00:20:52.226Z,99205.77
2018-05-11T00:23:18.757Z,99216.31
2018-05-11T00:25:45.157Z,99216.17
2018-05-11T00:28:11.587Z,99220.83
2018-05-11T00:30:37.965Z,99221.72
2018-05-11T00:33:04.412Z,99218.88
2018-05-11T00:35:30.961Z,99212.92
2018-05-11T00:37:57.370Z,99213.67
2018-05-11T00:40:23.817Z,99207.05
2018-05-11T00:42:50.256Z,99201.30
2018-05-11T00:45:16.860Z,99203.34
2018-05-11T00:47:43.265Z,99205.65
2018-05-11T00:50:09.716Z,99203.77
2018-05-11T00:52:36.153Z,99208.09
2018-05-11T00:55:14.687Z,99206.73
2018-05-11T00:57:41.134Z,99211.38
2018-05-11T01:00:08.447Z,99211.62
2018-05-11T01:02:34.939Z,99214.03
2018-05-11T01:05:01.410Z,99218.73
2018-05-11T01:07:29.265Z,99220.43
2018-05-11T01:09:55.692Z,99217.19
2018-05-11T01:12:22.187Z,99222.47
2018-05-11T01:14:48.640Z,99226.50
2018-05-11T01:17:15.088Z,99227.42
2018-05-11T01:19:41.598Z,99219.23
2018-05-11T01:22:08.131Z,99222.03
2018-05-11T01:24:34.596Z,99219.33
2018-05-11T01:27:01.021Z,99220.53
2018-05-11T01:29:27.361Z,99212.34
2018-05-11T01:31:53.882Z,99222.77
2018-05-11T01:34:20.307Z,99225.66
2018-05-11T01:36:46.687Z,99222.63
2018-05-11T01:39:13.050Z,99227.98
2018-05-11T01:41:39.479Z,99231.33
2018-05-11T01:44:05.907Z,99224.64
2018-05-11T01:46:32.433Z,99219.92
2018-05-11T01:48:59.000Z,99229.58
2018-05-11T01:51:25.426Z,99229.84
2018-05-11T01:53:51.954Z,99223.84
2018-05-11T01:56:18.381Z,99227.71
2018-05-11T01:58:44.887Z,99232.50
2018-05-11T02:01:11.278Z,99231.45
2018-05-11T02:03:38.545Z,99233.31
2018-05-11T02:06:05.007Z,99231.87
2018-05-11T02:08:31.392Z,99230.06
2018-05-11T02:10:57.824Z,99234.00
2018-05-11T02:13:24.254Z,99233.80
2018-05-11T02:15:50.674Z,99235.66
2018-05-11T02:18:17.126Z,99231.58
2018-05-11T02:20:43.559Z,99236.89
2018-05-11T02:23:09.994Z,99226.38
2018-05-11T02:25:36.465Z,99231.25
2018-05-11T02:28:02.922Z,99232.30
2018-05-11T02:30:29.341Z,99238.69
2018-05-11T02:32:55.867Z,99235.55
2018-05-11T02:35:22.350Z,99241.77
2018-05-11T02:37:48.776Z,99241.59
2018-05-11T02:40:15.184Z,99242.98
2018-05-11T02:42:41.667Z,99241.22
2018-05-11T02:45:08.242Z,99246.71
2018-05-11T02:47:34.972Z,99247.23
2018-05-11T02:50:01.405Z,99249.36
2018-05-11T02:52:28.637Z,99251.52
2018-05-11T02:54:55.108Z,99252.69
2018-05-11T02:57:21.677Z,99252.13
2018-05-11T02:59:48.074Z,99261.95
2018-05-11T03:02:14.576Z,99263.88
2018-05-11T03:04:41.463Z,99270.59
2018-05-11T03:07:08.053Z,99282.17
2018-05-11T03:09:34.579Z,99287.21
2018-05-11T03:12:01.029Z,99280.33
2018-05-11T03:14:27.640Z,99280.96
2018-05-11T03:16:54.123Z,99285.59
2018-05-11T03:19:20.517Z,99292.14
2018-05-11T03:21:46.890Z,99296.48
2018-05-11T03:24:14.180Z,99295.16
2018-05-11T03:26:40.761Z,99294.86
2018-05-11T03:29:07.161Z,99298.59
2018-05-11T03:31:33.677Z,99306.25
2018-05-11T03:34:00.067Z,99307.48
2018-05-11T03:36:26.578Z,99306.40
2018-05-11T03:38:53.006Z,99307.22
2018-05-11T03:41:19.383Z,99308.07
2018-05-11T03:43:45.898Z,99311.81
2018-05-11T03:46:12.285Z,99312.49
2018-05-11T03:48:38.846Z,99309.77
2018-05-11T03:51:05.365Z,99305.61
2018-05-11T03:53:31.748Z,99315.75
2018-05-11T03:55:58.200Z,99317.19
2018-05-11T03:58:24.700Z,99321.05
2018-05-11T04:00:51.124Z,99322.80
2018-05-11T04:03:29.858Z,99329.13
2018-05-11T04:19:35.793Z,99337.87
2018-05-11T04:22:02.266Z,99335.13
2018-05-11T04:24:28.755Z,99343.34
2018-05-11T04:26:55.284Z,99345.11
2018-05-11T04:29:21.661Z,99346.84
2018-05-11T04:31:48.102Z,99354.31
2018-05-11T04:34:14.461Z,99351.80
2018-05-11T04:36:40.899Z,99350.41
2018-05-11T04:39:07.566Z,99351.23
2018-05-11T04:41:34.053Z,99355.39
2018-05-11T04:44:00.515Z,99363.03
2018-05-11T04:46:26.998Z,99360.69
2018-05-11T04:48:53.446Z,99368.70
2018-05-11T04:51:19.911Z,99372.14
2018-05-11T04:53:47.232Z,99374.97
2018-05-11T04:56:13.674Z,99375.68
2018-05-11T04:58:40.187Z,99378.98
2018-05-11T05:01:06.638Z,99387.59
2018-05-11T05:03:33.149Z,99389.27
2018-05-11T05:05:59.573Z,99384.70
2018-05-11T05:08:26.071Z,99385.47
2018-05-11T05:10:52.531Z,99383.67
2018-05-11T05:13:18.941Z,99385.19
2018-05-11T05:15:45.295Z,99383.16
2018-05-11T05:18:11.777Z,99391.20
2018-05-11T05:20:38.212Z,99387.05
2018-05-11T05:23:04.694Z,99385.58
2018-05-11T05:25:32.071Z,99385.11
2018-05-11T05:27:58.543Z,99390.34
2018-05-11T05:30:24.921Z,99384.66
2018-05-11T05:32:51.297Z,99393.66
2018-05-11T05:35:18.386Z,99397.71
2018-05-11T05:37:44.790Z,99400.13
2018-05-11T05:40:11.356Z,99404.77
2018-05-11T05:42:37.837Z,99404.34
2018-05-11T05:45:04.315Z,99405.32
2018-05-11T05:47:30.788Z,99410.48
2018-05-11T05:49:57.249Z,99413.27
2018-05-11T05:52:23.793Z,99416.11
2018-05-11T05:54:50.254Z,99418.64
2018-05-11T05:57:16.809Z,99427.20
2018-05-11T05:59:43.291Z,99422.13
2018-05-11T06:02:09.814Z,99429.52
2018-05-11T06:04:36.369Z,99427.34
2018-05-11T06:07:02.925Z,99440.73
2018-05-11T06:09:29.434Z,99443.52
2018-05-11T06:11:55.902Z,99445.19
2018-05-11T06:14:22.429Z,99444.23
2018-05-11T06:16:48.844Z,99454.67
2018-05-11T06:19:15.350Z,99452.91
2018-05-11T06:21:41.762Z,99452.07
2018-05-11T06:24:08.215Z,99454.80
2018-05-11T06:26:34.857Z,99464.41
2018-05-11T06:29:01.315Z,99465.98
2018-05-11T06:31:27.838Z,99463.31
2018-05-11T06:33:54.282Z,99459.58
2018-05-11T06:36:20.828Z,99461.25
2018-05-11T06:38:47.313Z,99468.83
2018-05-11T06:41:13.757Z,99458.26
2018-05-11T06:43:40.136Z,99461.13
2018-05-11T06:46:06.671Z,99461.42
2018-05-11T06:48:33.153Z,99458.72
2018-05-11T06:50:59.600Z,99464.64
2018-05-11T06:53:25.987Z,99462.09
2018-05-11T06:55:52.479Z,99462.52
2018-05-11T06:58:18.930Z,99462.89
2018-05-11T07:00:45.577Z,99460.21
2018-05-11T07:03:11.959Z,99458.89
2018-05-11T07:05:38.382Z,99461.17
2018-05-11T07:08:04.898Z,99468.19
2018-05-11T07:10:31.320Z,99460.94
2018-05-11T07:12:57.727Z,99469.01
2018-05-11T07:15:24.146Z,99466.96
2018-05-11T07:17:50.643Z,99468.80
2018-05-11T07:20:17.040Z,99471.89
2018-05-11T07:22:43.439Z,99475.27
2018-05-11T07:25:09.976Z,99469.86
2018-05-11T07:27:36.378Z,99474.07
2018-05-11T07:30:03.016Z,99473.45
2018-05-11T07:32:29.440Z,99471.62
2018-05-11T07:34:56.831Z,99480.77
2018-05-11T07:37:23.273Z,99478.98
2018-05-11T07:39:49.647Z,99477.88
2018-05-11T07:42:16.016Z,99473.94
2018-05-11T07:44:42.567Z,99479.11
2018-05-11T07:47:08.982Z,99479.83
2018-05-11T07:49:35.922Z,99478.92
2018-05-11T07:52:02.404Z,99478.36
2018-05-11T07:54:28.760Z,99475.79
2018-05-11T07:56:55.436Z,99475.55
2018-05-11T07:59:21.862Z,99471.04
2018-05-11T08:01:48.264Z,99484.95
2018-05-11T08:04:14.683Z,99477.73
2018-05-11T08:06:41.210Z,99471.75
2018-05-11T08:09:07.646Z,99475.13
2018-05-11T08:11:34.189Z,99473.86
2018-05-11T08:14:00.690Z,99474.64
2018-05-11T08:16:27.176Z,99477.29
2018-05-11T08:18:54.464Z,99474.84
2018-05-11T08:21:21.134Z,99475.30
2018-05-11T08:23:47.521Z,99477.38
2018-05-11T08:26:13.904Z,99476.08
2018-05-11T08:28:40.392Z,99471.57
2018-05-11T08:31:06.751Z,99468.34
2018-05-11T08:33:33.362Z,99466.50
2018-05-11T08:35:59.909Z,99470.08
2018-05-11T08:38:26.273Z,99469.03
2018-05-11T08:40:52.703Z,99463.52
2018-05-11T08:43:19.159Z,99464.56
2018-05-11T08:45:45.590Z,99466.76
2018-05-11T08:48:11.958Z,99466.70
2018-05-11T08:50:38.369Z,99468.23
2018-05-11T08:53:04.950Z,99469.04
2018-05-11T08:55:31.488Z,99466.62
2018-05-11T08:57:57.869Z,99473.02
2018-05-11T09:00:24.333Z,99472.94
2018-05-11T09:02:50.863Z,99472.23
2018-05-11T09:05:17.294Z,99481.56
2018-05-11T09:07:43.938Z,99474.31
2018-05-11T09:10:10.338Z,99466.41
2018-05-11T09:12:36.780Z,99467.63
2018-05-11T09:15:03.376Z,99480.23
2018-05-11T09:17:29.855Z,99475.80
2018-05-11T09:19:56.352Z,99472.63
2018-05-11T09:22:22.826Z,99469.28
2018-05-11T09:24:49.409Z,99468.45
2018-05-11T09:27:15.901Z,99465.76
2018-05-11T09:29:42.461Z,99476.13
2018-05-11T09:32:08.971Z,99491.52
2018-05-11T09:34:35.367Z,99482.62
2018-05-11T09:37:01.835Z,99491.89
2018-05-11T09:39:28.310Z,99495.34
2018-05-11T09:41:54.756Z,99495.70
2018-05-11T09:44:21.176Z,99486.91
2018-05-11T09:46:47.626Z,99491.45
2018-05-11T09:49:14.067Z,99485.38
2018-05-11T09:51:40.582Z,99483.22
2018-05-11T09:54:07.099Z,99492.95
2018-05-11T09:56:33.533Z,99491.47
2018-05-11T09:58:59.951Z,99488.53
2018-05-11T10:01:26.346Z,99492.59
2018-05-11T10:03:52.785Z,99493.66
2018-05-11T10:06:19.384Z,99494.17
2018-05-11T10:08:46.396Z,99498.76
2018-05-11T10:11:12.844Z,99489.45
2018-05-11T10:13:39.472Z,99491.77
2018-05-11T10:16:05.853Z,99486.47
2018-05-11T10:18:32.242Z,99492.91
2018-05-11T10:20:58.680Z,99483.66
2018-05-11T10:23:25.176Z,99485.42
2018-05-11T10:25:51.549Z,99487.39
2018-05-11T10:28:18.588Z,99476.91
2018-05-11T10:30:44.992Z,99480.38
2018-05-11T10:33:11.402Z,99474.11
2018-05-11T10:35:37.855Z,99479.48
2018-05-11T10:38:04.307Z,99478.41
2018-05-11T10:40:30.839Z,99481.16
2018-05-11T10:42:57.230Z,99483.73
2018-05-11T10:45:24.179Z,99484.16
2018-05-11T10:47:50.997Z,99480.46
2018-05-11T10:50:17.513Z,99473.25
2018-05-11T10:52:43.906Z,99480.55
2018-05-11T10:55:10.360Z,99478.04
2018-05-11T10:57:36.818Z,99473.83
2018-05-11T11:00:03.273Z,99463.70
2018-05-11T11:02:29.911Z,99470.55
2018-05-11T11:04:56.396Z,99459.17
2018-05-11T11:07:22.841Z,99461.91
2018-05-11T11:09:49.317Z,99467.02
2018-05-11T11:12:15.695Z,99459.25
2018-05-11T11:14:42.054Z,99458.30
2018-05-11T11:17:08.526Z,99451.54
2018-05-11T11:19:34.983Z,99454.84
2018-05-11T11:22:01.582Z,99446.81
2018-05-11T11:24:28.111Z,99444.52
2018-05-11T11:26:54.492Z,99445.48
2018-05-11T11:29:21.082Z,99438.22
2018-05-11T11:31:47.535Z,99441.09
2018-05-11T11:34:13.964Z,99420.93
2018-05-11T11:36:40.295Z,99437.58
2018-05-11T11:39:06.754Z,99443.13
2018-05-11T11:41:33.808Z,99449.81
2018-05-11T11:44:00.200Z,99444.95
2018-05-11T11:46:26.697Z,99435.80
2018-05-11T11:48:53.146Z,99442.56
2018-05-11T11:51:19.583Z,99444.95
2018-05-11T11:53:46.086Z,99438.58
2018-05-11T11:56:12.615Z,99438.75
2018-05-11T11:58:39.315Z,99438.84
2018-05-11T12:01:05.738Z,99435.47
2018-05-11T12:03:32.179Z,99435.41
2018-05-11T12:05:59.655Z,99436.34
2018-05-11T12:08:27.932Z,99439.17
2018-05-11T12:10:54.325Z,99430.30
2018-05-11T12:13:20.718Z,99436.17
2018-05-11T12:15:47.172Z,99427.45
2018-05-11T12:18:13.582Z,99424.68
2018-05-11T12:20:40.760Z,99427.70
2018-05-11T12:23:07.138Z,99427.61
2018-05-11T12:25:33.505Z,99431.16
2018-05-11T12:27:59.895Z,99428.47
2018-05-11T12:30:26.350Z,99429.81
2018-05-11T12:32:52.853Z,99440.30
2018-05-11T12:35:19.323Z,99425.94
2018-05-11T12:37:45.781Z,99422.30
2018-05-11T12:40:12.207Z,99421.11
2018-05-11T12:42:38.614Z,99422.14
2018-05-11T12:45:05.074Z,99419.14
2018-05-11T12:47:31.538Z,99415.03
2018-05-11T12:49:57.996Z,99412.36
2018-05-11T12:52:24.431Z,99411.91
2018-05-11T12:54:51.778Z,99412.10
2018-05-11T12:57:20.776Z,99413.67
2018-05-11T12:59:49.537Z,99413.56
2018-05-11T13:02:15.961Z,99414.67
2018-05-11T13:04:42.447Z,99414.30
2018-05-11T13:07:09.003Z,99413.63
2018-05-11T13:09:35.506Z,99418.39
2018-05-11T13:12:01.909Z,99409.75
2018-05-11T13:14:28.347Z,99412.66
2018-05-11T13:16:54.774Z,99427.22
2018-05-11T13:19:21.513Z,99425.30
2018-05-11T13:21:47.867Z,99436.61
2018-05-11T13:24:14.256Z,99441.11
2018-05-11T13:26:40.757Z,99460.48
2018-05-11T13:29:07.282Z,99465.52
2018-05-11T13:31:33.758Z,99445.34
2018-05-11T13:34:00.369Z,99466.50
2018-05-11T13:36:27.188Z,99472.00
2018-05-11T13:38:53.627Z,99458.51
2018-05-11T13:41:20.107Z,99461.84
2018-05-11T13:43:46.453Z,99438.48
2018-05-11T13:46:12.977Z,99442.70
2018-05-11T13:48:39.429Z,99448.28
2018-05-11T13:51:05.849Z,99446.73
2018-05-11T13:53:32.355Z,99454.34
2018-05-11T13:55:59.798Z,99457.79
2018-05-11T13:58:26.153Z,99449.92
2018-05-11T14:00:52.556Z,99448.75
2018-05-11T14:03:19.044Z,99453.05
2018-05-11T14:05:45.591Z,99455.77
2018-05-11T14:08:12.658Z,99458.32
2018-05-11T14:10:39.112Z,99461.36
2018-05-11T14:13:05.562Z,99453.20
2018-05-11T14:15:32.113Z,99458.59
2018-05-11T14:17:58.706Z,99461.07
2018-05-11T14:20:25.260Z,99463.72
2018-05-11T14:22:51.750Z,99462.11
2018-05-11T14:25:18.298Z,99467.95
2018-05-11T14:27:44.755Z,99467.72
2018-05-11T14:30:11.275Z,99474.72
2018-05-11T14:32:37.771Z,99475.14
2018-05-11T14:35:04.249Z,99482.70
2018-05-11T14:37:30.809Z,99489.91
2018-05-11T14:39:57.337Z,99494.58
2018-05-11T14:42:23.915Z,99493.02
2018-05-11T14:44:50.310Z,99487.97
2018-05-11T14:47:17.776Z,99491.08
2018-05-11T14:49:44.280Z,99496.19
2018-05-11T14:52:10.723Z,99500.55
2018-05-11T14:54:37.102Z,99503.95
2018-05-11T14:57:03.511Z,99506.06
2018-05-11T14:59:29.991Z,99510.16
2018-05-11T15:01:56.398Z,99508.73
2018-05-11T15:04:22.778Z,99510.02
2018-05-11T15:06:49.295Z,99516.23
2018-05-11T15:09:15.766Z,99521.13
2018-05-11T15:11:42.285Z,99516.48
2018-05-11T15:14:08.763Z,99521.70
2018-05-11T15:16:35.236Z,99513.02
2018-05-11T15:19:02.754Z,99515.46
2018-05-11T15:21:29.258Z,99518.63
2018-05-11T15:23:55.783Z,99520.22
2018-05-11T15:26:22.335Z,99525.47
2018-05-11T15:28:49.148Z,99518.58
2018-05-11T15:31:15.617Z,99526.57
2018-05-11T15:33:42.043Z,99527.26
2018-05-11T15:36:08.493Z,99525.78
2018-05-11T15:38:35.053Z,99527.09
2018-05-11T15:41:01.515Z,99529.90
2018-05-11T15:43:27.890Z,99532.08
2018-05-11T15:45:54.348Z,99534.23
2018-05-11T15:48:20.823Z,99537.32
2018-05-11T15:50:47.312Z,99535.23
2018-05-11T15:53:13.762Z,99531.62
2018-05-11T15:55:40.262Z,99525.98
2018-05-11T15:58:06.677Z,99528.02
2018-05-11T16:00:33.050Z,99529.80
2018-05-11T16:02:59.416Z,99529.52
2018-05-11T16:05:25.907Z,99525.95
2018-05-11T16:07:52.428Z,99532.70
2018-05-11T16:10:18.942Z,99526.98
2018-05-11T16:12:45.427Z,99519.80
2018-05-11T16:15:11.891Z,99515.75
2018-05-11T16:17:38.311Z,99528.28
2018-05-11T16:20:04.720Z,99518.22
2018-05-11T16:22:31.277Z,99516.52
2018-05-11T16:24:57.788Z,99519.41
2018-05-11T16:27:24.283Z,99516.66
2018-05-11T16:29:50.715Z,99519.55
2018-05-11T16:32:17.257Z,99518.84
2018-05-11T16:34:43.700Z,99517.14
2018-05-11T16:37:10.098Z,99518.84
2018-05-11T16:39:36.659Z,99511.30
2018-05-11T16:42:03.101Z,99514.92
2018-05-11T16:44:29.533Z,99517.80
2018-05-11T16:46:56.020Z,99513.10
2018-05-11T16:49:22.504Z,99515.06
2018-05-11T16:51:49.026Z,99520.33
2018-05-11T16:54:15.443Z,99514.23
2018-05-11T16:56:41.945Z,99519.95
2018-05-11T16:59:08.337Z,99521.70
2018-05-11T17:01:34.769Z,99530.58
2018-05-11T17:04:01.237Z,99529.96
2018-05-11T17:06:27.638Z,99540.90
2018-05-11T17:08:54.069Z,99542.42
2018-05-11T17:11:20.641Z,99555.36
2018-05-11T17:13:47.150Z,99586.30
2018-05-11T17:16:13.690Z,99594.12
2018-05-11T17:18:40.235Z,99602.22
2018-05-11T17:21:06.665Z,99605.30
2018-05-11T17:23:33.154Z,99596.87
2018-05-11T17:25:59.662Z,99604.95
2018-05-11T17:28:26.159Z,99613.80
2018-05-11T17:30:52.693Z,99625.78
2018-05-11T17:33:19.652Z,99626.55
2018-05-11T17:35:46.041Z,99634.30
2018-05-11T17:38:12.544Z,99637.42
2018-05-11T17:40:39.016Z,99639.09
2018-05-11T17:43:05.558Z,99661.39
2018-05-11T17:45:31.943Z,99661.92
2018-05-11T17:47:58.491Z,99662.63
2018-05-11T17:50:24.945Z,99667.78
2018-05-11T17:52:51.406Z,99664.74
2018-05-11T17:55:17.800Z,99657.03
2018-05-11T17:57:44.285Z,99655.52
2018-05-11T18:00:10.667Z,99646.82
2018-05-11T18:02:37.114Z,99650.14
2018-05-11T18:05:03.600Z,99658.04
2018-05-11T18:07:30.007Z,99668.31
2018-05-11T18:09:56.602Z,99668.54
2018-05-11T18:12:23.103Z,99678.09
2018-05-11T18:14:49.404Z,99680.59
2018-05-11T18:17:15.914Z,99678.27
2018-05-11T18:19:42.535Z,99677.45
2018-05-11T18:22:08.971Z,99683.24
2018-05-11T18:24:35.367Z,99693.63
2018-05-11T18:27:01.877Z,99700.89
2018-05-11T18:29:28.420Z,99710.52
2018-05-11T18:31:54.904Z,99716.11
2018-05-11T18:34:22.303Z,99723.67
2018-05-11T18:36:48.755Z,99736.91
2018-05-11T18:39:15.129Z,99760.00
2018-05-11T18:41:41.557Z,99772.56
2018-05-11T18:44:08.079Z,99768.45
2018-05-11T18:46:34.614Z,99770.00
2018-05-11T18:49:01.089Z,99756.98
2018-05-11T18:51:27.636Z,99748.41
2018-05-11T18:53:54.525Z,99745.09
2018-05-11T18:56:20.665Z,99729.28
2018-05-11T18:58:47.262Z,99725.84
2018-05-11T19:01:13.738Z,99704.52
2018-05-11T19:03:40.220Z,99687.46
2018-05-11T19:06:06.703Z,99675.92
2018-05-11T19:08:34.058Z,99647.81
2018-05-11T19:11:00.590Z,99612.14
2018-05-11T19:13:26.995Z,99601.27
2018-05-11T19:15:53.478Z,99602.26
2018-05-11T19:18:19.941Z,99607.34
2018-05-11T19:20:46.326Z,99610.55
2018-05-11T19:23:12.873Z,99610.37
2018-05-11T19:25:39.311Z,99628.56
2018-05-11T19:28:05.829Z,99626.13
2018-05-11T19:30:32.290Z,99648.83
2018-05-11T19:32:58.902Z,99658.03
2018-05-11T19:35:25.603Z,99654.45
2018-05-11T19:37:52.065Z,99665.84
2018-05-11T19:40:18.560Z,99666.88
2018-05-11T19:42:45.084Z,99675.55
2018-05-11T19:45:11.631Z,99678.72
2018-05-11T19:47:38.127Z,99690.83
2018-05-11T19:50:04.509Z,99694.13
2018-05-11T19:52:31.036Z,99697.77
2018-05-11T19:54:57.560Z,99695.97
2018-05-11T19:57:24.081Z,99693.58
2018-05-11T19:59:50.505Z,99699.58
2018-05-11T20:02:17.110Z,99701.70
2018-05-11T20:04:43.774Z,99705.30
2018-05-11T20:07:11.135Z,99699.23
2018-05-11T20:09:37.653Z,99706.51
2018-05-11T20:12:04.110Z,99701.16
2018-05-11T20:14:30.522Z,99705.91
2018-05-11T20:16:57.027Z,99707.58
2018-05-11T20:19:23.498Z,99701.59
2018-05-11T20:21:49.987Z,99698.32
2018-05-11T20:24:16.559Z,99702.13
2018-05-11T20:26:43.144Z,99706.75
2018-05-11T20:29:09.646Z,99704.63
2018-05-11T20:31:36.134Z,99707.06
2018-05-11T20:34:02.583Z,99704.23
2018-05-11T20:36:29.157Z,99706.06
2018-05-11T20:38:55.664Z,99708.72
2018-05-11T20:41:22.247Z,99712.81
2018-05-11T20:43:48.764Z,99707.14
2018-05-11T20:46:15.220Z,99705.74
2018-05-11T20:48:41.731Z,99703.18
2018-05-11T20:51:08.268Z,99703.46
2018-05-11T20:53:34.786Z,99703.02
2018-05-11T20:56:01.246Z,99705.30
2018-05-11T20:58:27.728Z,99709.07
2018-05-11T21:00:54.217Z,99711.36
2018-05-11T21:03:20.665Z,99713.45
2018-05-11T21:05:47.076Z,99709.95
2018-05-11T21:08:13.567Z,99708.23
2018-05-11T21:10:40.205Z,99709.50
2018-05-11T21:13:06.644Z,99714.20
2018-05-11T21:15:33.119Z,99713.72
2018-05-11T21:17:59.551Z,99708.80
2018-05-11T21:20:25.991Z,99715.00
2018-05-11T21:22:52.440Z,99715.85
2018-05-11T21:25:18.857Z,99713.03
2018-05-11T21:27:46.159Z,99717.51
2018-05-11T21:30:12.645Z,99714.75
2018-05-11T21:32:39.135Z,99716.07
2018-05-11T21:35:05.604Z,99715.44
2018-05-11T21:37:31.950Z,99714.72
2018-05-11T21:39:58.395Z,99710.68
2018-05-11T21:42:24.897Z,99714.23
2018-05-11T21:44:51.388Z,99710.79
2018-05-11T21:47:17.802Z,99712.06
2018-05-11T21:49:44.211Z,99712.28
2018-05-11T21:52:10.716Z,99710.68
2018-05-11T21:54:37.098Z,99702.63
2018-05-11T21:57:03.488Z,99701.28
2018-05-11T21:59:29.942Z,99698.91
2018-05-11T22:01:56.459Z,99703.78
2018-05-11T22:04:22.934Z,99702.73
2018-05-11T22:06:49.526Z,99696.01
2018-05-11T22:09:15.978Z,99695.77
2018-05-11T22:11:42.549Z,99698.05
2018-05-11T22:14:09.719Z,99706.06
2018-05-11T22:16:36.391Z,99700.59
2018-05-11T22:19:02.791Z,99702.20
2018-05-11T22:21:29.351Z,99700.88
2018-05-11T22:23:55.764Z,99707.02
2018-05-11T22:26:22.317Z,99704.79
2018-05-11T22:28:48.777Z,99697.58
2018-05-11T22:31:15.194Z,99700.77
2018-05-11T22:33:41.626Z,99694.84
2018-05-11T22:36:08.171Z,99698.44
2018-05-11T22:38:34.539Z,99700.28
2018-05-11T22:41:00.977Z,99704.06
2018-05-11T22:43:27.466Z,99708.06
2018-05-11T22:45:53.870Z,99706.08
2018-05-11T22:48:20.390Z,99710.05
2018-05-11T22:50:46.848Z,99707.02
2018-05-11T22:53:13.242Z,99705.50
2018-05-11T22:55:39.593Z,99705.97
2018-05-11T22:58:05.957Z,99704.91
2018-05-11T23:00:39.647Z,99705.66
2018-05-11T23:03:05.937Z,99708.30
2018-05-11T23:05:33.084Z,99707.32
2018-05-11T23:07:59.627Z,99710.09
2018-05-11T23:10:26.066Z,99712.52
2018-05-11T23:12:52.507Z,99713.17
2018-05-11T23:15:18.911Z,99708.03
2018-05-11T23:17:45.381Z,99711.22
2018-05-11T23:20:11.860Z,99709.35
2018-05-11T23:22:38.378Z,99710.52
2018-05-11T23:25:04.874Z,99702.34
2018-05-11T23:27:38.397Z,99709.20
2018-05-11T23:30:04.931Z,99706.35
2018-05-11T23:32:31.412Z,99709.35
2018-05-11T23:34:57.883Z,99719.40
2018-05-11T23:37:24.262Z,99723.77
2018-05-11T23:39:50.681Z,99725.75
2018-05-11T23:42:17.121Z,99726.45
2018-05-11T23:44:43.533Z,99726.29
2018-05-11T23:47:10.024Z,99726.80
2018-05-11T23:49:36.509Z,99723.30
2018-05-11T23:52:02.961Z,99714.92
2018-05-11T23:54:29.367Z,99716.20
2018-05-11T23:56:55.768Z,99717.97
2018-05-11T23:59:22.271Z,99720.96
